Flight Track Log - Related Links

Times and Time Zones

All times are in EDT time to prevent confusion due to time zone crossing. See the ACA831 flight status page for this flight to view local times or setup timezone preferences in your user account.

Time Position Orientation Groundspeed Altitude Reporting Facility
EDT Latitude Longitude Course Direction KTS MPH feet Rate Location/Type
Mon 04:25:35 PM 45.4667 -73.7000 250° West 150 173 800  Level Montreal Center
Mon 04:26:35 PM 45.5000 -73.6667 35° Northeast 150 173 3,100 1,800 Climbing Montreal Center
Mon 04:27:35 PM 45.5333 -73.7000 325° Northwest 220 253 4,400 1,800 Climbing Montreal Center
Mon 04:28:35 PM 45.5833 -73.7667 317° Northwest 280 322 6,700 2,750 Climbing Montreal Center
Mon 04:29:00 PM 45.4167 -74.3434 270° West  Level FlightAware Approximate
Mon 04:29:35 PM 45.6000 -73.8833 282° West 280 322 9,900  Level Montreal Center
Mon 04:30:00 PM 45.3976 -74.4930 250° West  Level FlightAware Approximate
Mon 04:30:35 PM 45.5667 -73.9833 245° Southwest 320 368 11,800  Level Montreal Center
Mon 04:31:00 PM 45.3731 -74.6411 250° West  Level FlightAware Approximate
Mon 04:31:35 PM 45.5333 -74.1000 248° West 380 437 12,700  Level Montreal Center
Mon 04:32:35 PM 45.4667 -74.2500 238° Southwest 400 460 15,100 2,100 Climbing Montreal Center
Mon 04:33:35 PM 45.4167 -74.4000 245° Southwest 410 472 16,900 1,800 Climbing Montreal Center
Mon 04:34:35 PM 45.3833 -74.5667 254° West 420 483 18,700 2,000 Climbing Montreal Center
Mon 04:35:35 PM 45.3500 -74.7333 254° West 420 483 20,900 2,600 Climbing Montreal Center
Mon 04:36:35 PM 45.3333 -74.8667 260° West 410 472 23,900 1,950 Climbing Montreal Center
Mon 04:37:35 PM 45.3000 -75.0333 254° West 390 449 24,800 550 Climbing Montreal Center
Mon 04:38:35 PM 45.2667 -75.1833 253° West 420 483 25,000 550 Climbing Montreal Center
Mon 04:39:35 PM 45.2333 -75.3500 254° West 430 495 25,900 1,100 Climbing Montreal Center
Mon 04:40:35 PM 45.2000 -75.5167 254° West 430 495 27,200 1,100 Climbing Montreal Center
Mon 04:41:35 PM 45.1833 -75.6833 262° West 440 506 28,100 1,200 Climbing Montreal Center
Mon 04:42:35 PM 45.1500 -75.8500 254° West 430 495 29,600 2,250 Climbing Montreal Center
Mon 04:43:35 PM 45.1167 -76.0167 254° West 400 460 32,600 1,700 Climbing Montreal Center
Mon 04:44:35 PM 45.1000 -76.1500 260° West 380 437 33,000 600 Climbing Montreal Center
Mon 04:45:35 PM 45.0500 -76.3000 245° Southwest 380 437 33,800 500 Climbing Montreal Center
Mon 04:46:35 PM 45.0000 -76.4167 239° Southwest 380 437 34,000 100 Climbing Montreal Center
Mon 04:47:35 PM 44.9500 -76.5667 245° Southwest 390 449 34,000  Level Montreal Center
Mon 04:48:38 PM 44.9000 -76.6667 235° Southwest 390 449 34,000  Level Toronto Center
Mon 04:49:35 PM 44.8500 -76.8167 245° Southwest 380 437 34,000  Level Montreal Center
Mon 04:50:35 PM 44.8000 -76.9667 245° Southwest 390 449 34,000  Level Montreal Center
Mon 04:51:35 PM 44.7500 -77.0833 239° Southwest 390 449 34,000  Level Montreal Center
Mon 04:52:35 PM 44.7000 -77.2167 242° Southwest 390 449 34,000  Level Montreal Center
Mon 04:53:38 PM 44.6333 -77.3333 231° Southwest 390 449 34,000  Level Toronto Center
Mon 04:54:38 PM 44.5833 -77.4833 245° Southwest 390 449 34,000  Level Toronto Center
Mon 04:55:38 PM 44.5333 -77.6000 239° Southwest 390 449 34,000  Level Toronto Center
Mon 04:56:38 PM 44.4667 -77.7333 235° Southwest 400 460 34,000  Level Toronto Center
Mon 04:57:38 PM 44.4167 -77.8833 245° Southwest 400 460 34,000  Level Toronto Center
Mon 04:58:38 PM 44.3500 -78.0000 231° Southwest 400 460 34,000 -800 Level Toronto Center
Mon 04:59:38 PM 44.3000 -78.1333 242° Southwest 400 460 32,400 -2,900 Descending Toronto Center
Mon 05:00:38 PM 44.2333 -78.2833 238° Southwest 400 460 28,200 -3,850 Descending Toronto Center
Mon 05:01:38 PM 44.1833 -78.4000 239° Southwest 420 483 24,700 -3,400 Descending Toronto Center
Mon 05:02:38 PM 44.1333 -78.5667 247° West 420 483 21,400 -3,000 Descending Toronto Center
Mon 05:03:38 PM 44.0833 -78.6833 239° Southwest 410 472 18,700 -2,450 Descending Toronto Center
Mon 05:04:38 PM 44.0167 -78.8167 235° Southwest 400 460 16,500 -1,550 Descending Toronto Center
Mon 05:05:38 PM 43.9667 -78.9333 239° Southwest 360 414 15,600 -950 Descending Toronto Center
Mon 05:06:38 PM 43.9167 -79.0333 235° Southwest 320 368 14,600 -1,250 Descending Toronto Center
Mon 05:07:38 PM 43.8667 -79.1500 239° Southwest 320 368 13,100 -1,500 Descending Toronto Center
Mon 05:08:38 PM 43.8167 -79.2333 230° Southwest 320 368 11,600 -1,600 Descending Toronto Center
Mon 05:09:38 PM 43.7667 -79.3333 235° Southwest 310 357 9,900 -1,550 Descending Toronto Center
Mon 05:10:38 PM 43.7000 -79.4000 216° Southwest 300 345 8,500 -1,050 Descending Toronto Center
Mon 05:11:38 PM 43.6333 -79.4667 216° Southwest 290 334 7,800 -700 Descending Toronto Center
Mon 05:12:38 PM 43.5833 -79.5333 224° Southwest 280 322 7,100 -1,300 Descending Toronto Center
Mon 05:13:38 PM 43.5333 -79.6167 230° Southwest 260 299 5,200 -1,350 Descending Toronto Center
Mon 05:14:38 PM 43.4833 -79.6833 224° Southwest 250 288 4,400 -800 Descending Toronto Center
Mon 05:15:38 PM 43.4667 -79.7500 251° West 210 242 3,600 -650 Descending Toronto Center
Mon 05:16:38 PM 43.5167 -79.7500 360° North 180 207 3,100 -500 Descending Toronto Center

Login

Don't have an account? Register now (free) for customized features, flight alerts, and more!